»·PEaware :: N113A KRAL-KSEE

N113A :: KRAL-KSEE

FLIGHT INFORMATION

Flight Status: Arrived
Operator: Privately registered:
United States
More flights under this callsign
Pilot: Andrew A. (11207)
Aircraft: Unknown
(G58)
More flights by this aircraft type
Origin: KRAL Riverside Mun
United States
Destination: KSEE Gillespie
United States
More flights between these airports :: More routes between these airports
Route: +PDZ V186 HAILE V66 MZB
File this flight plan on PilotEdge
Remarks: ONTN12
Altitude:
(Current/Filed)
11,000ft
Speed:
(Current/Filed)
146kts
Departed: 27-Sep-16 06:40 PM
Arrived: 27-Sep-16 07:21 PM
Distance/Time
Traveled:
72nm/0:40
Distance/Time
To Go:
Arrived

Flight Plot

Page will automatically refresh every two minutes.


Map Options




Map Legend


Flown Route
Filed Route
Departure Airport
Arrival Airport
Navaid (VOR, NDB)
Fix

Horizontal Profiles

Position Reports

Time Latitude Longitude Heading Altitude Ground
Speed
27-Sep-16 18:18 33.950849 -117.447182 10 763ft 0kts
27-Sep-16 18:19 33.950849 -117.447182 10 763ft 0kts
27-Sep-16 18:20 33.950849 -117.447182 10 763ft 0kts
27-Sep-16 18:21 33.950849 -117.447182 10 763ft 0kts
27-Sep-16 18:22 33.950849 -117.447182 10 763ft 0kts
27-Sep-16 18:23 33.950849 -117.447182 10 763ft 0kts
27-Sep-16 18:24 33.950849 -117.447182 10 763ft 0kts
27-Sep-16 18:25 33.950849 -117.447182 10 763ft 0kts
27-Sep-16 18:26 33.950849 -117.447182 10 763ft 0kts
27-Sep-16 18:27 33.951197 -117.447188 25 763ft 8kts
27-Sep-16 18:29 33.951740 -117.446520 41 766ft 9kts
27-Sep-16 18:29 33.950869 -117.447163 10 763ft 0kts
27-Sep-16 18:31 33.950899 -117.447156 14 763ft 0kts
27-Sep-16 18:31 33.951414 -117.443066 101 782ft 10kts
27-Sep-16 18:32 33.950801 -117.439838 104 797ft 7kts
27-Sep-16 18:33 33.950225 -117.436839 104 808ft 14kts
27-Sep-16 18:34 33.949967 -117.435071 65 811ft 0kts
27-Sep-16 18:35 33.950728 -117.435688 285 811ft 32kts
27-Sep-16 18:36 33.958463 -117.472091 277 1451ft 134kts
27-Sep-16 18:37 33.958965 -117.517788 240 2421ft 149kts
27-Sep-16 18:38 33.919530 -117.525980 176 3279ft 157kts
27-Sep-16 18:39 33.886830 -117.497525 136 4321ft 151kts
27-Sep-16 18:40 33.851295 -117.469980 146 5301ft 148kts
27-Sep-16 18:41 33.820516 -117.444327 145 6534ft 127kts
27-Sep-16 18:42 33.794188 -117.424827 142 7667ft 106kts
27-Sep-16 18:43 33.768816 -117.405189 140 8559ft 106kts
27-Sep-16 18:44 33.741226 -117.384031 139 8972ft 142kts
27-Sep-16 18:45 33.706231 -117.352137 138 8992ft 163kts
27-Sep-16 18:46 33.668496 -117.319948 138 8991ft 167kts
27-Sep-16 18:47 33.631645 -117.286385 138 9010ft 167kts
27-Sep-16 18:48 33.594538 -117.252741 134 9024ft 165kts
27-Sep-16 18:49 33.556906 -117.219670 138 9000ft 166kts
27-Sep-16 18:50 33.518865 -117.187050 139 8914ft 168kts
27-Sep-16 18:51 33.479954 -117.156934 153 8858ft 169kts
27-Sep-16 18:52 33.433494 -117.147781 164 8878ft 167kts
27-Sep-16 18:53 33.393705 -117.121676 140 8861ft 173kts
27-Sep-16 18:54 33.354935 -117.087056 136 8986ft 173kts
27-Sep-16 18:55 33.314951 -117.052676 137 8969ft 175kts
27-Sep-16 18:56 33.274570 -117.018125 139 8939ft 178kts
27-Sep-16 18:57 33.234501 -116.982439 136 8920ft 177kts
27-Sep-16 18:58 33.195036 -116.947808 139 8981ft 176kts
27-Sep-16 18:59 33.155412 -116.913842 139 8968ft 177kts
27-Sep-16 19:00 33.115927 -116.879016 138 8921ft 177kts
27-Sep-16 19:01 33.076226 -116.845253 140 8928ft 173kts
27-Sep-16 19:02 33.037357 -116.811984 142 8947ft 172kts
27-Sep-16 19:03 32.998696 -116.779110 141 8622ft 167kts
27-Sep-16 19:04 32.960942 -116.748980 140 7250ft 160kts
27-Sep-16 19:05 32.924602 -116.719063 142 5940ft 153kts
27-Sep-16 19:06 32.892194 -116.692050 140 5954ft 142kts
27-Sep-16 19:07 32.857393 -116.674792 186 5946ft 145kts
27-Sep-16 19:08 32.817995 -116.685573 188 5929ft 145kts
27-Sep-16 19:09 32.779851 -116.698766 230 5747ft 144kts
27-Sep-16 19:10 32.787233 -116.743331 278 4898ft 132kts
27-Sep-16 19:11 32.794594 -116.786654 276 4357ft 164kts
27-Sep-16 19:12 32.803032 -116.831020 276 3383ft 116kts
27-Sep-16 19:13 32.809329 -116.867702 277 2430ft 105kts
27-Sep-16 19:14 32.815474 -116.901836 278 2534ft 119kts
27-Sep-16 19:15 32.821892 -116.937685 276 1203ft 105kts
27-Sep-16 19:16 32.827390 -116.969994 280 372ft 75kts
27-Sep-16 19:17 32.827919 -116.975791 235 360ft 5kts
27-Sep-16 19:19 32.826299 -116.974581 153 363ft 11kts

Navigation Log

Ident Type
Flight plan parsing failed, navigation log unavailable